CSA weather

Campo Sonora Airstrip
Hermosillo, Sonora, Mexico

Public forecast

Using degrees Celsius for public forecast. Weather courtesy of forecast.io.

METAR (pilot weather report)

Closest report is General José María Yáñez International Airport, 21.9 nm (40.6 km) WSW. Retrieved 2019/06/17 17:40 UTC (37 minutes ago):

MMGM 171740Z 22016KT 10SM FEW020 30/24 A2982 RMK 8/400 HZY

TAF (pilot weather forecast)

Closest forecast is General José María Yáñez International Airport, 21.9 nm (40.6 km) WSW. Retrieved 2019/06/17 18:39 UTC (0 seconds ago):

TAF MMGM 171636Z 1718/1818 18010KT P6SM SCT020 FM172100 23012KT P6SM SKC FM180300 00000KT P6SM SKC FM181500 20012KT P6SM SKC